Time;durP1;ratioP1;P1;durP2;ratioP2;P2;SDS_P1;SDS_P2;PMS_P1;PMS_P2;Temp;Humidity;BMP_temperature;BMP_pressure;BME280_temperature;BME280_humidity;BME280_pressure;Samples;Min_cycle;Max_cycle;Signal;HPM_P1;HPM_P2
2022/10/28 06:27:33;;;;;;;;;11.00;10.25;;;;;19.41;59.50;101352.13;5046809;27;45518;-71
2022/10/28 06:29:58;;;;;;;;;10.25;9.00;;;;;19.55;59.61;101365.28;5039974;27;45982;-74
2022/10/28 06:32:23;;;;;;;;;6.00;5.33;;;;;19.71;60.10;101362.16;5047884;27;46048;-75
2022/10/28 06:34:49;;;;;;;;;11.25;8.50;;;;;19.92;60.14;101350.59;5047671;27;45478;-75
2022/10/28 06:37:14;;;;;;;;;12.67;8.67;;;;;20.19;59.67;101345.72;5046939;27;46223;-74
2022/10/28 06:39:39;;;;;;;;;7.00;7.00;;;;;20.47;59.40;101348.72;5047275;27;45679;-73
2022/10/28 06:42:05;;;;;;;;;8.67;8.67;;;;;20.76;58.43;101354.25;5047686;27;45406;-74
2022/10/28 06:44:30;;;;;;;;;10.67;9.33;;;;;21.04;57.27;101364.47;5045665;27;45519;-74
2022/10/28 06:46:55;;;;;;;;;11.00;10.00;;;;;21.28;56.00;101365.94;5045818;27;47396;-73
2022/10/28 06:49:21;;;;;;;;;10.33;9.00;;;;;21.50;55.46;101377.53;5047866;27;45256;-73
2022/10/28 06:51:46;;;;;;;;;8.33;8.33;;;;;21.64;55.97;101371.72;5046494;27;45543;-73
2022/10/28 06:54:11;;;;;;;;;9.33;9.00;;;;;21.81;55.32;101375.59;5046345;27;45428;-73
2022/10/28 06:56:37;;;;;;;;;9.33;9.33;;;;;22.01;55.51;101382.84;5045874;27;45911;-73
2022/10/28 06:59:02;;;;;;;;;13.33;10.00;;;;;22.33;54.93;101408.72;5047317;27;45466;-72
2022/10/28 07:01:27;;;;;;;;;14.00;13.00;;;;;22.48;53.91;101403.72;5047472;27;45372;-73
2022/10/28 07:03:52;;;;;;;;;11.33;10.33;;;;;22.63;54.11;101410.41;5047196;27;45299;-73
2022/10/28 07:06:18;;;;;;;;;11.33;8.67;;;;;22.73;53.75;101415.78;5047354;27;46104;-73
2022/10/28 07:08:43;;;;;;;;;9.00;8.67;;;;;22.82;53.78;101416.75;5047354;27;45380;-73
2022/10/28 07:11:09;;;;;;;;;12.00;10.00;;;;;22.93;53.65;101425.69;5046435;27;45618;-74
2022/10/28 07:13:34;;;;;;;;;14.00;11.00;;;;;23.02;53.00;101427.53;5043630;27;45567;-74
2022/10/28 07:16:00;;;;;;;;;9.00;8.33;;;;;23.08;52.83;101426.03;5046013;27;45518;-73
2022/10/28 07:18:27;;;;;;;;;10.67;10.67;;;;;23.16;52.80;101437.84;5044970;27;45540;-73
2022/10/28 07:20:53;;;;;;;;;14.33;12.67;;;;;23.23;52.70;101430.00;5046253;27;45904;-73
2022/10/28 07:23:19;;;;;;;;;14.00;11.33;;;;;23.30;52.60;101428.38;5047317;27;45527;-74
2022/10/28 07:25:51;;;;;;;;;17.00;13.33;;;;;23.40;52.05;101435.63;5044738;27;46064;-75
2022/10/28 07:28:17;;;;;;;;;11.00;11.00;;;;;23.48;51.73;101445.72;5028842;27;46024;-76
2022/10/28 07:30:42;;;;;;;;;13.00;11.00;;;;;23.51;51.27;101443.53;5045367;27;45563;-75
2022/10/28 07:33:07;;;;;;;;;14.33;11.00;;;;;23.59;51.35;101441.94;5047088;27;45480;-74
2022/10/28 07:35:33;;;;;;;;;12.67;10.67;;;;;23.64;50.91;101450.47;5045911;27;45487;-75
2022/10/28 07:37:58;;;;;;;;;13.67;10.33;;;;;23.72;50.97;101452.41;5038171;27;45692;-76
2022/10/28 07:40:24;;;;;;;;;15.67;11.33;;;;;23.73;50.82;101445.97;5033630;27;45505;-74
2022/10/28 07:42:50;;;;;;;;;12.00;11.00;;;;;23.75;50.63;101444.00;5042587;27;45310;-76
2022/10/28 07:45:16;;;;;;;;;9.33;8.67;;;;;23.83;50.60;101463.06;5055828;27;44920;-76
2022/10/28 07:47:42;;;;;;;;;7.00;7.00;;;;;23.86;50.58;101460.03;5040396;27;45259;-76
2022/10/28 07:50:08;;;;;;;;;9.67;9.67;;;;;23.92;50.38;101474.81;5030014;27;45564;-77
2022/10/28 07:52:35;;;;;;;;;10.33;10.33;;;;;23.97;50.33;101477.06;5032429;27;45520;-74
2022/10/28 07:55:01;;;;;;;;;12.00;9.00;;;;;23.99;50.39;101484.03;5032673;27;46557;-74
2022/10/28 07:57:27;;;;;;;;;12.67;11.33;;;;;24.04;50.22;101486.31;5030273;27;45489;-74
2022/10/28 07:59:52;;;;;;;;;14.33;11.67;;;;;24.06;50.00;101495.13;5030576;27;45537;-74
2022/10/28 08:02:24;;;;;;;;;11.00;11.00;;;;;24.11;49.92;101503.69;5032192;27;45943;-74
2022/10/28 08:04:50;;;;;;;;;10.33;9.33;;;;;24.08;50.12;101493.97;5030643;27;45355;-74
2022/10/28 08:07:16;;;;;;;;;10.33;10.33;;;;;24.07;49.81;101507.66;5032721;27;45449;-74
2022/10/28 08:09:42;;;;;;;;;14.00;13.00;;;;;24.06;50.13;101508.69;5033327;27;45472;-74
2022/10/28 08:12:11;;;;;;;;;13.33;11.00;;;;;24.04;50.36;101508.81;5032267;27;45472;-74
2022/10/28 08:14:36;;;;;;;;;12.00;11.00;;;;;24.02;49.97;101500.00;5031566;27;46731;-75
2022/10/28 08:17:02;;;;;;;;;10.00;10.00;;;;;23.98;50.00;101486.94;5030660;27;45536;-74
2022/10/28 08:19:27;;;;;;;;;10.00;9.00;;;;;24.02;50.05;101507.28;5031105;27;45529;-75
2022/10/28 08:21:52;;;;;;;;;13.33;12.00;;;;;24.02;50.27;101496.44;5031475;27;51609;-75
2022/10/28 08:24:17;;;;;;;;;10.67;10.33;;;;;24.02;50.05;101489.16;5014265;27;49010;-75
2022/10/28 08:26:43;;;;;;;;;10.00;9.33;;;;;24.01;49.93;101501.03;5031049;27;47891;-75
2022/10/28 08:29:10;;;;;;;;;12.33;10.67;;;;;24.10;50.13;101517.41;5029643;27;45385;-76
2022/10/28 08:31:36;;;;;;;;;15.00;12.00;;;;;24.09;50.17;101530.13;5031054;27;45398;-76
2022/10/28 08:34:02;;;;;;;;;13.33;11.67;;;;;24.10;50.10;101539.13;5027572;27;45509;-75
2022/10/28 08:38:28;;;;;;;;;9.33;9.33;;;;;24.12;50.39;101537.09;5092057;27;45840;-83
2022/10/28 08:41:28;;;;;;;;;13.00;11.00;;;;;24.12;50.51;101534.38;5088321;27;45714;-86
2022/10/28 08:44:11;;;;;;;;;11.33;10.00;;;;;24.15;50.84;101534.91;5090810;27;45486;-82
2022/10/28 08:47:01;;;;;;;;;12.00;10.67;;;;;24.21;50.79;101525.31;5088950;27;45508;-84
2022/10/28 08:49:31;;;;;;;;;9.33;8.00;;;;;24.26;50.85;101541.13;5103931;27;46177;-86
2022/10/28 08:52:02;;;;;;;;;12.00;10.00;;;;;24.29;51.17;101532.69;5088144;27;45400;-82
2022/10/28 08:54:34;;;;;;;;;11.00;11.00;;;;;24.37;51.01;101542.75;5090328;27;45468;-87
2022/10/28 08:57:03;;;;;;;;;14.00;11.00;;;;;24.40;50.95;101537.03;5089990;27;45506;-93
2022/10/28 08:59:31;;;;;;;;;13.67;10.33;;;;;24.47;50.92;101543.53;5090520;27;46439;-88
2022/10/28 09:02:03;;;;;;;;;9.00;8.00;;;;;24.51;51.16;101555.78;5089865;27;45486;-80
2022/10/28 09:04:39;;;;;;;;;8.33;7.00;;;;;24.55;50.57;101546.31;5090445;27;45367;-81
2022/10/28 09:07:10;;;;;;;;;14.00;10.00;;;;;24.58;51.08;101556.00;5089568;27;45469;-79
2022/10/28 09:09:35;;;;;;;;;10.00;8.67;;;;;24.60;50.52;101562.13;5086957;27;45330;-78
2022/10/28 09:12:31;;;;;;;;;10.67;10.67;;;;;24.62;50.61;101565.53;5089173;27;45450;-78
2022/10/28 09:15:32;;;;;;;;;10.67;8.00;;;;;24.70;50.49;101565.63;5089635;27;45628;-78
2022/10/28 09:18:25;;;;;;;;;14.33;10.33;;;;;24.76;50.71;101564.13;5089386;27;45539;-82
2022/10/28 09:21:04;;;;;;;;;8.00;7.33;;;;;24.80;50.40;101564.69;5089317;27;45750;-79
2022/10/28 09:23:33;;;;;;;;;9.67;9.67;;;;;24.81;50.33;101558.25;5084745;27;45617;-79
2022/10/28 09:26:10;;;;;;;;;8.33;7.00;;;;;24.85;50.71;101562.38;5088681;27;45827;-82
2022/10/28 09:29:06;;;;;;;;;9.33;9.33;;;;;24.90;50.16;101570.03;5090793;27;45492;-76
2022/10/28 09:31:40;;;;;;;;;9.00;7.67;;;;;24.92;50.00;101581.59;5084484;27;45499;-75
2022/10/28 09:34:20;;;;;;;;;7.33;6.67;;;;;24.95;50.01;101576.72;5090249;27;45414;-75
2022/10/28 09:36:57;;;;;;;;;10.33;7.33;;;;;24.97;50.46;101580.09;5090590;27;45424;-75
2022/10/28 09:39:28;;;;;;;;;9.67;8.00;;;;;24.93;49.68;101576.00;5088293;27;45529;-77
2022/10/28 09:41:58;;;;;;;;;8.00;8.00;;;;;25.00;49.81;101584.38;5087563;27;47180;-76
2022/10/28 09:44:23;;;;;;;;;9.00;7.33;;;;;25.03;49.83;101594.06;5082635;27;45466;-76
2022/10/28 09:46:53;;;;;;;;;10.33;5.33;;;;;25.02;49.79;101590.50;5089484;27;45623;-76
2022/10/28 09:49:27;;;;;;;;;5.33;5.33;;;;;25.03;49.59;101603.06;5080655;27;45382;-78
2022/10/28 09:52:15;;;;;;;;;8.33;8.00;;;;;25.07;49.42;101609.91;5076027;27;46406;-80
2022/10/28 09:54:46;;;;;;;;;8.00;6.33;;;;;25.09;49.68;101610.59;5075914;27;45545;-84
2022/10/28 09:57:12;;;;;;;;;7.67;7.67;;;;;25.11;49.62;101596.84;5075978;27;45296;-85
2022/10/28 09:59:37;;;;;;;;;7.00;7.00;;;;;25.11;49.59;101592.28;5076613;28;45339;-81
2022/10/28 10:02:03;;;;;;;;;9.00;7.00;;;;;25.12;49.17;101588.53;5074894;27;46127;-81
2022/10/28 10:04:34;;;;;;;;;6.67;6.67;;;;;25.16;49.12;101585.50;5083254;27;45608;-88
2022/10/28 10:07:08;;;;;;;;;9.67;8.67;;;;;25.17;49.18;101588.06;5073807;27;45513;-81
2022/10/28 10:09:36;;;;;;;;;8.00;8.00;;;;;25.20;48.86;101592.31;5082493;27;45489;-80
2022/10/28 10:12:08;;;;;;;;;9.67;9.67;;;;;25.19;49.32;101591.47;5097048;27;46666;-76
2022/10/28 10:14:48;;;;;;;;;9.67;9.33;;;;;25.23;48.31;101597.44;5082938;28;45435;-74
2022/10/28 10:17:38;;;;;;;;;8.67;7.33;;;;;25.26;48.05;101599.84;5074247;27;45490;-76
2022/10/28 10:20:25;;;;;;;;;10.00;9.33;;;;;25.24;48.45;101602.72;5074312;28;45533;-78
2022/10/28 10:22:51;;;;;;;;;8.33;6.67;;;;;25.22;48.31;101603.88;5064134;28;45988;-82
2022/10/28 10:25:16;;;;;;;;;9.00;7.67;;;;;25.25;48.38;101611.69;5066120;27;45418;-84
2022/10/28 10:27:48;;;;;;;;;8.33;7.00;;;;;25.26;48.30;101613.44;5074339;27;45594;-75
2022/10/28 10:30:21;;;;;;;;;7.33;7.33;;;;;25.27;48.29;101606.97;5104464;27;45536;-79
2022/10/28 10:32:47;;;;;;;;;11.67;9.00;;;;;25.36;47.59;101614.19;5076076;28;45267;-79
2022/10/28 10:35:12;;;;;;;;;6.00;5.00;;;;;25.43;47.25;101614.38;5076236;27;45575;-79
2022/10/28 10:37:43;;;;;;;;;8.67;7.00;;;;;25.39;47.67;101608.41;5079633;27;45532;-79
2022/10/28 10:40:11;;;;;;;;;7.67;6.33;;;;;25.48;46.90;101625.63;5076634;28;45625;-78
2022/10/28 10:42:37;;;;;;;;;8.00;8.00;;;;;25.39;47.15;101613.84;5076467;28;45578;-78
2022/10/28 10:45:18;;;;;;;;;10.00;10.00;;;;;25.48;47.25;101650.09;5077224;28;45515;-74
2022/10/28 10:47:44;;;;;;;;;10.00;9.00;;;;;25.49;47.03;101662.66;5074794;27;45978;-78
2022/10/28 10:50:20;;;;;;;;;6.67;6.67;;;;;25.55;47.22;101663.03;5085154;27;45454;-78
2022/10/28 10:52:51;;;;;;;;;7.67;7.67;;;;;25.57;46.72;101659.16;5076113;28;47009;-74
2022/10/28 10:55:26;;;;;;;;;11.33;8.67;;;;;25.60;46.39;101647.13;5073057;28;45494;-76
2022/10/28 10:57:52;;;;;;;;;7.00;7.00;;;;;25.61;46.31;101646.09;5073583;28;45409;-77
2022/10/28 11:00:20;;;;;;;;;9.00;8.67;;;;;25.61;46.87;101643.38;5075941;27;45344;-79
2022/10/28 11:02:46;;;;;;;;;7.67;7.00;;;;;25.61;46.27;101646.97;5075391;27;46270;-79
2022/10/28 11:05:20;;;;;;;;;9.67;8.00;;;;;25.56;46.90;101649.31;5074250;28;45773;-81
2022/10/28 11:07:48;;;;;;;;;9.00;8.00;;;;;25.51;46.63;101655.19;5064862;27;45677;-81
2022/10/28 11:10:28;;;;;;;;;8.67;8.67;;;;;25.51;46.86;101648.91;5076632;28;45448;-81
2022/10/28 11:13:00;;;;;;;;;11.67;9.33;;;;;25.45;46.88;101646.81;5076626;28;46666;-81
2022/10/28 11:15:28;;;;;;;;;13.67;10.33;;;;;25.43;47.09;101646.13;5075866;27;45439;-81
2022/10/28 11:18:15;;;;;;;;;9.67;9.67;;;;;25.38;47.20;101661.06;5075638;27;45416;-81
2022/10/28 11:21:06;;;;;;;;;8.33;8.00;;;;;25.38;47.04;101669.19;5076130;28;45434;-81
2022/10/28 11:24:01;;;;;;;;;9.33;9.33;;;;;25.34;47.24;101666.97;5087481;27;46952;-79
2022/10/28 11:26:29;;;;;;;;;11.33;9.67;;;;;25.39;47.08;101684.50;5071248;28;45437;-77
2022/10/28 11:29:13;;;;;;;;;11.00;10.00;;;;;25.33;47.09;101654.38;5082777;27;45410;-79
2022/10/28 11:32:09;;;;;;;;;10.33;8.67;;;;;25.47;47.23;101677.41;5065336;28;45359;-76
2022/10/28 11:34:49;;;;;;;;;10.00;7.00;;;;;25.46;46.86;101671.13;5076058;27;45725;-77
2022/10/28 11:37:17;;;;;;;;;8.33;8.33;;;;;25.43;47.60;101673.31;5074853;28;45635;-75
2022/10/28 11:40:00;;;;;;;;;9.67;8.67;;;;;25.28;47.49;101652.16;5076208;28;45489;-78
2022/10/28 11:42:43;;;;;;;;;13.00;10.67;;;;;25.38;47.42;101666.47;5072844;28;45557;-78
2022/10/28 11:45:37;;;;;;;;;11.33;11.33;;;;;25.27;47.66;101639.59;5065780;27;48535;-78
2022/10/28 11:48:12;;;;;;;;;9.00;8.67;;;;;25.27;47.82;101650.44;5075596;27;45491;-76
2022/10/28 11:50:38;;;;;;;;;10.00;10.00;;;;;25.41;48.17;101665.31;5070792;28;45467;-82
2022/10/28 11:53:15;;;;;;;;;6.67;6.67;;;;;25.46;48.28;101671.13;5076234;28;45469;-75
2022/10/28 11:55:52;;;;;;;;;8.67;7.67;;;;;25.48;48.27;101669.13;5073437;28;46394;-74
2022/10/28 11:58:50;;;;;;;;;12.67;9.33;;;;;25.50;48.16;101674.41;5065385;28;45498;-75
2022/10/28 12:01:43;;;;;;;;;13.00;9.33;;;;;25.51;48.26;101662.50;5073136;27;45515;-78
2022/10/28 12:04:45;;;;;;;;;9.67;8.00;;;;;25.55;48.21;101674.81;5075879;27;45450;-77
2022/10/28 12:07:45;;;;;;;;;10.00;7.33;;;;;25.60;48.50;101675.16;5005220;28;46136;-74
2022/10/28 12:10:13;;;;;;;;;8.00;8.00;;;;;25.62;48.65;101659.53;5012208;28;45295;-75
2022/10/28 12:13:13;;;;;;;;;12.00;10.00;;;;;25.66;48.49;101665.50;5011041;28;45724;-77
2022/10/28 12:16:03;;;;;;;;;9.00;8.33;;;;;25.72;48.88;101664.00;5010897;28;45492;-74
2022/10/28 12:18:34;;;;;;;;;7.33;7.33;;;;;25.76;48.78;101668.13;5011099;28;46517;-75
2022/10/28 12:21:38;;;;;;;;;12.67;9.00;;;;;25.83;48.37;101671.03;5011532;28;45627;-80
2022/10/28 12:24:16;;;;;;;;;8.00;8.00;;;;;25.85;48.09;101671.72;5012015;28;45649;-84
2022/10/28 12:26:47;;;;;;;;;11.33;9.67;;;;;25.86;48.39;101667.97;5002189;28;45562;-80
2022/10/28 12:29:36;;;;;;;;;9.67;9.67;;;;;25.87;48.68;101665.09;5009900;28;46073;-78
2022/10/28 12:32:10;;;;;;;;;13.33;9.00;;;;;25.87;48.72;101659.66;5017406;28;45560;-77
2022/10/28 12:34:49;;;;;;;;;10.67;8.00;;;;;25.82;48.36;101639.44;5009738;28;46182;-81
2022/10/28 12:37:20;;;;;;;;;11.33;8.33;;;;;25.90;48.43;101653.91;5006696;28;45491;-78
2022/10/28 12:40:23;;;;;;;;;11.33;9.00;;;;;25.92;48.93;101651.03;5006490;28;47342;-79
2022/10/28 12:43:00;;;;;;;;;6.67;6.67;;;;;25.94;48.75;101656.31;4935007;28;45499;-76
2022/10/28 12:45:30;;;;;;;;;9.33;6.33;;;;;25.92;48.61;101649.16;5010242;28;45385;-77
2022/10/28 12:48:20;;;;;;;;;9.00;9.00;;;;;25.91;48.53;101646.59;5008855;28;45524;-77
2022/10/28 12:50:51;;;;;;;;;10.33;7.33;;;;;25.92;48.95;101654.59;5000895;28;46433;-80
2022/10/28 12:53:29;;;;;;;;;8.00;8.00;;;;;25.92;48.41;101656.47;5010765;28;45496;-77
2022/10/28 12:56:05;;;;;;;;;9.00;8.00;;;;;25.92;49.18;101659.19;5012384;28;45549;-78
2022/10/28 12:59:08;;;;;;;;;8.00;8.00;;;;;25.92;48.42;101665.47;5009957;28;45573;-79
2022/10/28 13:01:34;;;;;;;;;10.00;8.67;;;;;25.92;48.72;101665.47;5006831;28;46322;-74
2022/10/28 13:04:00;;;;;;;;;8.67;8.67;;;;;25.94;48.73;101653.59;5005252;28;45421;-79
2022/10/28 13:06:53;;;;;;;;;12.33;10.67;;;;;26.02;48.70;101664.50;5008755;28;45493;-78
2022/10/28 13:09:47;;;;;;;;;8.67;7.33;;;;;26.01;48.90;101660.06;4998939;28;45377;-82
2022/10/28 13:12:25;;;;;;;;;10.00;9.00;;;;;26.04;48.87;101662.47;5011481;28;45770;-78
2022/10/28 13:15:24;;;;;;;;;13.67;10.33;;;;;26.04;48.83;101674.19;5007895;28;45371;-78
2022/10/28 13:17:55;;;;;;;;;10.67;8.33;;;;;26.03;48.82;101674.34;5065065;28;45612;-77
2022/10/28 13:20:37;;;;;;;;;8.67;8.67;;;;;25.96;48.55;101663.31;5074115;27;45437;-78
2022/10/28 13:23:26;;;;;;;;;8.67;8.33;;;;;26.06;48.53;101676.75;5076842;27;46556;-77
2022/10/28 13:26:12;;;;;;;;;8.00;8.00;;;;;25.97;48.89;101655.97;5080256;27;45461;-77
2022/10/28 13:28:45;;;;;;;;;10.67;9.67;;;;;26.05;48.44;101667.75;5077187;28;45479;-77
2022/10/28 13:31:11;;;;;;;;;10.00;9.33;;;;;26.15;48.24;101677.63;5077416;27;45548;-74
2022/10/28 13:33:38;;;;;;;;;6.67;6.67;;;;;26.11;48.84;101677.13;5076913;28;45359;-74
2022/10/28 13:36:16;;;;;;;;;7.00;7.00;;;;;26.01;48.51;101655.50;5071139;27;45469;-78
2022/10/28 13:38:47;;;;;;;;;11.00;11.00;;;;;26.11;48.48;101651.81;5099232;27;45556;-75
2022/10/28 13:41:29;;;;;;;;;12.33;9.33;;;;;26.13;48.36;101666.06;5067550;27;45750;-78
2022/10/28 13:43:58;;;;;;;;;9.33;9.33;;;;;26.21;48.52;101679.72;5077595;28;46138;-75
2022/10/28 13:46:57;;;;;;;;;7.67;7.67;;;;;26.24;48.48;101679.38;5076933;28;45420;-72
2022/10/28 13:49:29;;;;;;;;;9.33;9.33;;;;;26.27;47.71;101662.75;5064426;27;45505;-72
2022/10/28 13:52:07;;;;;;;;;13.00;10.67;;;;;26.30;47.75;101667.88;5077377;27;45386;-77
2022/10/28 13:54:53;;;;;;;;;12.67;8.67;;;;;26.26;47.48;101681.97;5076760;28;46221;-75
2022/10/28 13:57:35;;;;;;;;;8.67;8.67;;;;;26.21;48.07;101673.41;5075153;28;45430;-75
2022/10/28 14:00:05;;;;;;;;;13.00;10.00;;;;;26.16;47.89;101674.75;5083143;27;45496;-75
2022/10/28 14:02:37;;;;;;;;;11.00;7.33;;;;;26.13;48.22;101657.91;5078843;27;45422;-75
2022/10/28 14:05:11;;;;;;;;;7.33;7.33;;;;;26.13;47.83;101660.63;5076596;28;45644;-74
2022/10/28 14:08:03;;;;;;;;;4.67;4.67;;;;;26.13;48.26;101655.19;5076485;27;45517;-75
2022/10/28 14:10:32;;;;;;;;;10.00;9.00;;;;;26.15;48.38;101658.59;5076535;28;45364;-74
2022/10/28 14:13:02;;;;;;;;;10.67;8.00;;;;;26.14;48.12;101655.03;5076857;27;45415;-76
2022/10/28 14:15:30;;;;;;;;;9.33;8.33;;;;;26.15;48.33;101661.31;5074260;27;46096;-77
2022/10/28 14:18:17;;;;;;;;;12.00;11.00;;;;;26.16;48.41;101655.72;5071739;27;45757;-76
2022/10/28 14:20:57;;;;;;;;;11.67;10.00;;;;;26.16;48.75;101652.16;5078465;27;45315;-73
2022/10/28 14:23:25;;;;;;;;;9.00;9.00;;;;;26.22;47.90;101651.50;5076449;27;46349;-74
2022/10/28 14:25:52;;;;;;;;;7.00;7.00;;;;;26.27;48.11;101659.19;5075550;28;45788;-75
2022/10/28 14:28:29;;;;;;;;;7.00;6.67;;;;;26.26;48.26;101660.19;5076364;28;45462;-73
2022/10/28 14:31:07;;;;;;;;;9.00;9.00;;;;;26.20;47.92;101660.84;5073426;28;45804;-74
2022/10/28 14:34:08;;;;;;;;;10.33;10.33;;;;;26.21;48.00;101655.22;5074508;28;45458;-75
2022/10/28 14:37:11;;;;;;;;;9.33;9.00;;;;;26.06;48.05;101644.13;5068630;27;48114;-79
2022/10/28 14:39:58;;;;;;;;;8.33;6.67;;;;;26.16;48.73;101663.03;5075500;27;45371;-75
2022/10/28 14:42:49;;;;;;;;;12.33;8.33;;;;;26.06;47.97;101649.56;5070550;28;45427;-75
2022/10/28 14:45:30;;;;;;;;;6.67;6.67;;;;;26.13;48.26;101663.34;5064252;28;45532;-77
2022/10/28 14:48:18;;;;;;;;;8.00;8.00;;;;;26.13;48.74;101664.22;5075575;28;45548;-75
2022/10/28 14:50:46;;;;;;;;;8.00;8.00;;;;;26.15;48.69;101673.06;5073998;27;45611;-72
2022/10/28 14:53:35;;;;;;;;;9.33;9.00;;;;;26.23;48.51;101677.69;5076611;28;45371;-73
2022/10/28 14:56:05;;;;;;;;;9.67;9.33;;;;;26.24;47.69;101681.25;5075798;28;45407;-72
2022/10/28 14:58:37;;;;;;;;;13.00;11.00;;;;;26.18;48.08;101680.03;5076153;28;47051;-72
2022/10/28 15:01:23;;;;;;;;;9.00;9.00;;;;;26.22;47.42;101681.41;5075665;28;45506;-72
2022/10/28 15:03:55;;;;;;;;;13.33;7.67;;;;;26.17;47.87;101684.63;5076704;28;45711;-71
2022/10/28 15:06:30;;;;;;;;;8.00;8.00;;;;;26.11;47.71;101684.44;5074773;28;45366;-71
2022/10/28 15:09:03;;;;;;;;;10.33;9.33;;;;;26.03;48.17;101683.38;5074360;28;48101;-74
2022/10/28 15:11:29;;;;;;;;;12.00;10.33;;;;;25.96;47.65;101676.03;5095522;27;45426;-75
2022/10/28 15:14:11;;;;;;;;;7.67;7.33;;;;;25.94;47.83;101675.34;5072298;27;45439;-74
2022/10/28 15:16:45;;;;;;;;;11.67;8.67;;;;;25.94;48.27;101676.19;5073660;27;45490;-76
2022/10/28 15:19:16;;;;;;;;;10.67;8.67;;;;;25.90;47.75;101675.66;5074471;27;45575;-77
2022/10/28 15:21:41;;;;;;;;;9.33;9.00;;;;;25.94;48.13;101681.63;5063956;27;45394;-77
2022/10/28 15:24:12;;;;;;;;;8.33;8.33;;;;;25.95;48.28;101682.50;5070467;27;45427;-76
2022/10/28 15:26:37;;;;;;;;;10.33;8.67;;;;;25.98;48.35;101684.88;5067810;28;45465;-78
2022/10/28 15:29:02;;;;;;;;;12.00;9.67;;;;;25.99;48.38;101683.88;5071416;27;45493;-77
2022/10/28 15:31:28;;;;;;;;;10.67;10.67;;;;;26.01;48.32;101693.59;5073163;27;45504;-79
2022/10/28 15:33:54;;;;;;;;;10.33;8.67;;;;;26.04;48.79;101689.69;5090967;27;45481;-80
2022/10/28 15:36:24;;;;;;;;;12.00;10.00;;;;;26.03;48.33;101686.09;5071452;27;48974;-81
2022/10/28 15:38:50;;;;;;;;;9.00;9.00;;;;;26.07;48.68;101689.34;5073105;27;46719;-80
2022/10/28 15:41:39;;;;;;;;;9.67;8.67;;;;;26.09;48.29;101684.59;5067210;27;45567;-77
2022/10/28 15:44:04;;;;;;;;;12.67;11.33;;;;;26.08;48.79;101679.31;5066411;28;45717;-80
2022/10/28 15:46:32;;;;;;;;;8.33;8.00;;;;;26.05;48.69;101680.50;5069105;27;45397;-78
2022/10/28 15:49:00;;;;;;;;;8.67;8.33;;;;;26.07;48.27;101677.63;5067745;27;46494;-75
2022/10/28 15:51:26;;;;;;;;;7.33;6.67;;;;;26.08;48.94;101687.47;5071646;27;45456;-75
2022/10/28 15:54:10;;;;;;;;;9.00;9.00;;;;;26.07;49.00;101675.72;5070001;27;45438;-75
2022/10/28 15:56:54;;;;;;;;;10.67;9.00;;;;;26.11;48.93;101693.44;5072353;27;45653;-78
2022/10/28 15:59:22;;;;;;;;;12.33;12.33;;;;;26.12;48.99;101683.41;5068737;28;46256;-76
2022/10/28 16:01:47;;;;;;;;;12.67;11.00;;;;;26.13;48.69;101685.13;5066689;28;46886;-78
2022/10/28 16:04:21;;;;;;;;;18.67;15.00;;;;;26.14;48.61;101690.41;5069734;27;45561;-76
2022/10/28 16:06:50;;;;;;;;;16.67;15.33;;;;;26.12;49.30;101686.97;5074241;27;45596;-76
2022/10/28 16:09:20;;;;;;;;;16.67;10.67;;;;;26.15;48.76;101691.25;5074104;27;45336;-76
2022/10/28 16:11:50;;;;;;;;;14.67;13.33;;;;;26.14;48.82;101698.56;5073952;28;45351;-76
2022/10/28 16:15:02;;;;;;;;;16.67;16.33;;;;;26.12;49.03;101697.84;5069230;27;45498;-76
2022/10/28 16:17:35;;;;;;;;;22.00;16.00;;;;;26.14;48.99;101703.13;5064620;27;45965;-75
2022/10/28 16:20:08;;;;;;;;;15.67;15.67;;;;;26.11;48.86;101709.75;5065669;27;45374;-75
2022/10/28 16:22:35;;;;;;;;;13.67;13.33;;;;;26.15;49.21;101710.28;5061488;27;45453;-74
2022/10/28 16:25:01;;;;;;;;;16.33;14.33;;;;;26.17;49.45;101714.53;5070284;27;45584;-75
2022/10/28 16:27:30;;;;;;;;;10.00;10.00;;;;;26.16;48.80;101712.00;5070833;27;45880;-77
2022/10/28 16:29:56;;;;;;;;;16.00;14.00;;;;;26.16;48.87;101709.28;5073170;28;45782;-77
2022/10/28 16:32:30;;;;;;;;;15.00;12.00;;;;;26.19;48.91;101717.09;5073395;27;45481;-75
2022/10/28 16:34:56;;;;;;;;;17.00;13.33;;;;;26.19;48.92;101717.09;5065936;28;45688;-75
2022/10/28 16:37:27;;;;;;;;;12.00;11.33;;;;;26.22;48.84;101726.81;5064618;28;45471;-75
2022/10/28 16:39:53;;;;;;;;;17.00;12.67;;;;;26.22;49.02;101716.78;5063879;27;45604;-75
2022/10/28 16:42:21;;;;;;;;;17.33;14.00;;;;;26.24;49.03;101713.91;5073136;27;45449;-76
2022/10/28 16:44:46;;;;;;;;;17.33;16.00;;;;;26.15;49.56;101711.16;5072857;28;45576;-77
2022/10/28 16:47:14;;;;;;;;;12.33;11.67;;;;;26.17;48.98;101717.25;5074496;28;45611;-76
2022/10/28 16:49:41;;;;;;;;;17.33;14.00;;;;;26.05;49.02;101718.59;5073887;27;48423;-77
2022/10/28 16:52:13;;;;;;;;;17.33;17.33;;;;;26.10;49.59;101731.69;5074783;27;45558;-77
2022/10/28 16:54:38;;;;;;;;;17.00;16.33;;;;;26.08;49.56;101742.75;5073563;28;46040;-77
2022/10/28 16:57:03;;;;;;;;;17.33;16.00;;;;;26.06;49.19;101744.75;5075089;28;45490;-75
2022/10/28 16:59:29;;;;;;;;;18.00;18.00;;;;;26.02;49.48;101749.69;5076189;27;64736;-75
2022/10/28 17:01:57;;;;;;;;;17.67;16.00;;;;;25.93;49.10;101737.03;5077977;27;45532;-75
2022/10/28 17:04:23;;;;;;;;;17.67;13.33;;;;;25.96;49.64;101750.34;5075463;27;45725;-76
2022/10/28 17:06:48;;;;;;;;;24.00;18.67;;;;;25.83;48.78;101736.31;5086388;27;45701;-76
2022/10/28 17:09:14;;;;;;;;;17.67;16.33;;;;;25.81;48.78;101738.31;5076030;27;46147;-76
2022/10/28 17:11:39;;;;;;;;;20.33;17.33;;;;;25.79;49.02;101741.22;5072167;27;45588;-75
2022/10/28 17:14:05;;;;;;;;;23.67;20.33;;;;;25.78;49.34;101737.63;5075646;28;46952;-74
2022/10/28 17:16:30;;;;;;;;;27.67;22.33;;;;;25.86;49.15;101755.88;5073845;27;45398;-74
2022/10/28 17:18:55;;;;;;;;;21.00;18.33;;;;;25.83;49.06;101767.06;5071784;27;45649;-74
2022/10/28 17:21:20;;;;;;;;;20.67;17.67;;;;;25.78;49.12;101756.66;5061208;27;45261;-75
2022/10/28 17:23:46;;;;;;;;;23.00;20.33;;;;;25.76;49.00;101752.41;5074066;27;52584;-75
2022/10/28 17:26:11;;;;;;;;;18.00;18.00;;;;;25.74;49.42;101746.25;5083748;27;47561;-75
2022/10/28 17:28:36;;;;;;;;;26.33;23.00;;;;;25.69;48.92;101741.31;5074927;28;46193;-75
